Date,TemperatureHighF,TemperatureAvgF,TemperatureLowF,DewpointHighF,DewpointAvgF,DewpointLowF,HumidityHigh,HumidityAvg,HumidityLow,PressureMaxIn,PressureMinIn,WindSpeedMaxMPH,WindSpeedAvgMPH,GustSpeedMaxMPH,PrecipitationSumIn
2013-1-1,35.8,16.3,5.5,14.9,9.6,1.5,90,77,42,30.65,30.53,7,1,7,0.00
2013-1-2,18.9,10.8,1.4,14.1,6.5,-2.0,85,83,68,30.65,30.53,6,1,6,0.00
2013-1-3,34.2,17.4,-1.8,16.9,5.8,-6.0,86,63,40,30.53,30.39,8,1,8,0.00
2013-1-4,54.5,27.3,18.5,30.5,11.7,2.9,73,53,33,30.86,26.93,8,1,8,0.00
2013-1-5,30.7,24.1,15.4,24.1,15.7,9.2,84,71,47,30.77,30.68,6,1,6,0.00
2013-1-6,46.4,29.9,20.1,25.2,21.8,17.1,96,74,42,30.71,30.62,8,1,8,0.00
2013-1-7,48.9,40.7,28.6,34.4,28.5,22.6,78,63,51,30.68,30.56,0,0,0,0.00
2013-1-8,51.3,44.6,34.9,35.1,31.0,28.2,81,59,48,30.68,30.56,15,4,15,0.00
2013-1-9,47.3,37.7,24.3,34.9,25.0,16.9,85,61,47,30.56,30.33,21,4,21,0.00
2013-1-10,36.9,25.4,17.6,24.5,17.5,12.2,98,73,47,30.53,30.44,12,2,12,0.00
2013-1-11,29.3,19.9,6.3,14.4,8.7,-0.8,81,62,44,30.71,30.50,13,2,13,0.00
2013-1-12,31.5,10.4,-3.3,9.9,-1.2,-10.2,72,60,40,30.80,30.71,6,0,6,0.00
2013-1-13,33.4,10.8,-5.4,10.0,-4.3,-16.9,78,51,34,30.86,30.77,5,0,5,0.00
2013-1-14,42.1,19.4,2.3,18.8,4.1,-11.7,88,53,33,30.92,30.80,6,0,6,0.00
2013-1-15,50.7,25.5,10.2,24.8,15.0,8.6,93,69,36,31.06,30.92,6,1,6,0.00
2013-1-16,55.4,30.3,12.9,24.2,15.1,7.5,83,56,29,31.09,30.98,6,1,6,0.00
2013-1-17,52.0,31.9,20.7,23.0,15.2,10.4,64,51,31,31.01,30.86,9,1,9,0.00
2013-1-18,51.4,34.2,18.7,24.0,15.8,7.8,70,48,34,30.89,30.80,8,1,8,0.00
2013-1-19,56.1,29.3,19.2,24.4,15.1,11.4,72,58,29,30.89,26.96,5,1,5,0.00
2013-1-20,27.0,26.3,18.7,15.6,14.7,12.1,79,61,57,30.62,26.96,4,0,4,0.00
2013-1-21,53.4,29.7,14.7,21.4,13.1,5.4,68,52,28,30.53,30.39,8,1,8,0.00
2013-1-22,53.2,32.1,19.9,22.1,16.8,9.2,81,56,29,30.41,26.81,8,1,8,0.00
2013-1-23,56.1,39.9,28.4,33.6,23.9,14.6,87,54,34,30.33,30.09,10,1,11,0.00
2013-1-24,54.1,42.6,30.9,38.5,31.8,28.5,98,69,40,30.36,30.30,12,2,12,0.00
2013-1-25,48.0,41.6,37.0,43.5,36.9,34.1,98,84,61,30.36,30.15,11,2,11,0.04
2013-1-26,44.1,34.1,24.6,36.7,23.5,18.7,98,67,41,30.24,30.12,10,2,10,0.00
2013-1-27,43.0,30.6,19.6,26.3,20.2,14.6,98,68,39,30.27,30.21,10,1,10,0.00
2013-1-28,37.4,34.6,30.7,24.2,22.3,20.1,72,61,51,30.30,30.21,11,1,11,0.00
2013-1-29,47.8,39.3,34.9,29.9,26.3,22.7,75,60,48,30.56,30.30,15,3,15,0.00
2013-1-30,52.3,39.8,31.1,31.9,28.6,22.7,94,65,46,30.56,30.56,9,1,9,0.00
2013-1-31,52.0,36.3,25.5,36.7,28.5,24.9,98,77,41,30.56,30.47,10,1,10,0.00